Airport View

Enter AWOS ICAO identifier for current METAR.

ex. KFNL

KRIL 022253Z AUTO 27008KT 10SM CLR 33/M05 A3011 RMK AO2 SLP121 T03281050

2 Jun 2020 23:39

Frequency: 135.275

Phone: 970-625-2206

Other Area AWOS: K5SM - KEEO - KEGE - KASE

TAF KRIL 021735Z 0218/0318 VRB04KT P6SM FEW120 FEW250 FM022000 29009KT P6SM FEW250 FM030400 VRB03KT P6SM SCT250 FM031200 VRB03KT P6SM SKC